Terminal Aerodrome Forecast
Issued by NWS

Home | Current Version | Previous Version | Text Only | Print | Product List | Glossary On
Versions: 1 2 3 4 5 6 7 8 9 10 11 12 13 14 15 16 17 18 19 20 21 22 23 24 25 26 27 28 29 30 31 32 33 34
000
FTUS45 KGJT 031612 AAC
TAFTEX
TAF AMD
KTEX 031612Z 0316/0412 12010KT P6SM SCT070 BKN120
     FM031800 26005KT P6SM VCTS SCT070CB BKN120
      TEMPO 0320/0324 VRB15G25KT TSRA SCT040 BKN060CB
     FM040100 VRB03KT P6SM VCSH SCT045 BKN070
     FM040600 11006KT P6SM BKN120=

USA.gov is the U.S. government's official web portal to all federal, state and local government web resources and services.